sensor_id;sensor_type;location;lat;lon;timestamp;P1;durP1;ratioP1;P2;durP2;ratioP2
69404;SDS011;57084;52.046;5.632;2022-11-20T00:00:00;20.5;;;14.7;;
69404;SDS011;57084;52.046;5.632;2022-11-20T00:01:03;16.2;;;14.1;;
69404;SDS011;57084;52.046;5.632;2022-11-20T00:02:00;16.2;;;14.1;;
69404;SDS011;57084;52.046;5.632;2022-11-20T00:03:00;16.2;;;14.1;;
69404;SDS011;57084;52.046;5.632;2022-11-20T00:04:00;16.2;;;14.1;;
69404;SDS011;57084;52.046;5.632;2022-11-20T00:05:00;16.2;;;14.1;;
69404;SDS011;57084;52.046;5.632;2022-11-20T00:06:00;16.4;;;14.1;;
69404;SDS011;57084;52.046;5.632;2022-11-20T00:07:00;16.4;;;14.1;;
69404;SDS011;57084;52.046;5.632;2022-11-20T00:08:00;16.4;;;14.1;;
69404;SDS011;57084;52.046;5.632;2022-11-20T00:09:00;16.4;;;14.1;;
69404;SDS011;57084;52.046;5.632;2022-11-20T00:10:00;16.4;;;14.1;;
69404;SDS011;57084;52.046;5.632;2022-11-20T00:11:02;16.8;;;14.2;;
69404;SDS011;57084;52.046;5.632;2022-11-20T00:12:00;16.8;;;14.2;;
69404;SDS011;57084;52.046;5.632;2022-11-20T00:13:00;16.8;;;14.2;;
69404;SDS011;57084;52.046;5.632;2022-11-20T00:14:01;16.8;;;14.2;;
69404;SDS011;57084;52.046;5.632;2022-11-20T00:15:00;16.8;;;14.2;;
69404;SDS011;57084;52.046;5.632;2022-11-20T00:16:01;16.8;;;15.0;;
69404;SDS011;57084;52.046;5.632;2022-11-20T00:17:00;16.8;;;15.0;;
69404;SDS011;57084;52.046;5.632;2022-11-20T00:18:00;16.8;;;15.0;;
69404;SDS011;57084;52.046;5.632;2022-11-20T00:19:00;16.8;;;15.0;;
69404;SDS011;57084;52.046;5.632;2022-11-20T00:20:00;16.8;;;15.0;;
69404;SDS011;57084;52.046;5.632;2022-11-20T00:21:00;16.8;;;15.0;;
69404;SDS011;57084;52.046;5.632;2022-11-20T00:22:00;16.9;;;14.4;;
69404;SDS011;57084;52.046;5.632;2022-11-20T00:23:00;16.9;;;14.4;;
69404;SDS011;57084;52.046;5.632;2022-11-20T00:24:00;16.9;;;14.4;;
69404;SDS011;57084;52.046;5.632;2022-11-20T00:25:00;16.9;;;14.4;;
69404;SDS011;57084;52.046;5.632;2022-11-20T00:26:01;16.9;;;14.4;;
69404;SDS011;57084;52.046;5.632;2022-11-20T00:27:00;16.4;;;14.7;;
69404;SDS011;57084;52.046;5.632;2022-11-20T00:28:00;16.4;;;14.7;;
69404;SDS011;57084;52.046;5.632;2022-11-20T00:29:00;16.4;;;14.7;;
69404;SDS011;57084;52.046;5.632;2022-11-20T00:30:00;16.4;;;14.7;;
69404;SDS011;57084;52.046;5.632;2022-11-20T00:31:00;16.4;;;14.7;;
69404;SDS011;57084;52.046;5.632;2022-11-20T00:32:00;15.8;;;14.2;;
69404;SDS011;57084;52.046;5.632;2022-11-20T00:33:00;15.8;;;14.2;;
69404;SDS011;57084;52.046;5.632;2022-11-20T00:34:00;15.8;;;14.2;;
69404;SDS011;57084;52.046;5.632;2022-11-20T00:35:00;15.8;;;14.2;;
69404;SDS011;57084;52.046;5.632;2022-11-20T00:36:00;15.8;;;14.2;;
69404;SDS011;57084;52.046;5.632;2022-11-20T00:37:00;17.7;;;14.8;;
69404;SDS011;57084;52.046;5.632;2022-11-20T00:38:00;17.7;;;14.8;;
69404;SDS011;57084;52.046;5.632;2022-11-20T00:39:00;17.7;;;14.8;;
69404;SDS011;57084;52.046;5.632;2022-11-20T00:40:00;17.7;;;14.8;;
69404;SDS011;57084;52.046;5.632;2022-11-20T00:41:01;17.7;;;14.8;;
69404;SDS011;57084;52.046;5.632;2022-11-20T00:42:00;15.1;;;13.5;;
69404;SDS011;57084;52.046;5.632;2022-11-20T00:43:00;15.1;;;13.5;;
69404;SDS011;57084;52.046;5.632;2022-11-20T00:44:00;15.1;;;13.5;;
69404;SDS011;57084;52.046;5.632;2022-11-20T00:45:00;15.1;;;13.5;;
69404;SDS011;57084;52.046;5.632;2022-11-20T00:46:01;15.1;;;13.5;;
69404;SDS011;57084;52.046;5.632;2022-11-20T00:47:00;15.8;;;14.2;;
69404;SDS011;57084;52.046;5.632;2022-11-20T00:48:00;15.8;;;14.2;;
69404;SDS011;57084;52.046;5.632;2022-11-20T00:49:00;15.8;;;14.2;;
69404;SDS011;57084;52.046;5.632;2022-11-20T00:50:00;15.8;;;14.2;;
69404;SDS011;57084;52.046;5.632;2022-11-20T00:51:00;15.8;;;14.2;;
69404;SDS011;57084;52.046;5.632;2022-11-20T00:52:00;15.2;;;13.6;;
69404;SDS011;57084;52.046;5.632;2022-11-20T00:53:00;15.2;;;13.6;;
69404;SDS011;57084;52.046;5.632;2022-11-20T00:54:00;15.2;;;13.6;;
69404;SDS011;57084;52.046;5.632;2022-11-20T00:55:00;15.2;;;13.6;;
69404;SDS011;57084;52.046;5.632;2022-11-20T00:56:03;15.2;;;13.6;;
69404;SDS011;57084;52.046;5.632;2022-11-20T00:57:00;16.4;;;14.7;;
69404;SDS011;57084;52.046;5.632;2022-11-20T00:58:00;16.4;;;14.7;;
69404;SDS011;57084;52.046;5.632;2022-11-20T00:59:00;16.4;;;14.7;;
69404;SDS011;57084;52.046;5.632;2022-11-20T01:00:00;16.4;;;14.7;;
69404;SDS011;57084;52.046;5.632;2022-11-20T01:01:00;16.4;;;14.7;;
69404;SDS011;57084;52.046;5.632;2022-11-20T01:02:00;15.4;;;13.8;;
69404;SDS011;57084;52.046;5.632;2022-11-20T01:03:00;15.4;;;13.8;;
69404;SDS011;57084;52.046;5.632;2022-11-20T01:04:00;15.4;;;13.8;;
69404;SDS011;57084;52.046;5.632;2022-11-20T01:05:00;15.4;;;13.8;;
69404;SDS011;57084;52.046;5.632;2022-11-20T01:06:00;15.4;;;13.8;;
69404;SDS011;57084;52.046;5.632;2022-11-20T01:07:00;15.6;;;13.6;;
69404;SDS011;57084;52.046;5.632;2022-11-20T01:08:00;15.6;;;13.6;;
69404;SDS011;57084;52.046;5.632;2022-11-20T01:09:01;15.6;;;13.6;;
69404;SDS011;57084;52.046;5.632;2022-11-20T01:10:00;15.6;;;13.6;;
69404;SDS011;57084;52.046;5.632;2022-11-20T01:11:01;15.6;;;13.6;;
69404;SDS011;57084;52.046;5.632;2022-11-20T01:12:00;16.7;;;14.9;;
69404;SDS011;57084;52.046;5.632;2022-11-20T01:13:00;16.7;;;14.9;;
69404;SDS011;57084;52.046;5.632;2022-11-20T01:14:02;16.7;;;14.9;;
69404;SDS011;57084;52.046;5.632;2022-11-20T01:15:00;16.7;;;14.9;;
69404;SDS011;57084;52.046;5.632;2022-11-20T01:16:01;16.7;;;14.9;;
69404;SDS011;57084;52.046;5.632;2022-11-20T01:17:00;16.6;;;13.2;;
69404;SDS011;57084;52.046;5.632;2022-11-20T01:18:00;16.6;;;13.2;;
69404;SDS011;57084;52.046;5.632;2022-11-20T01:19:01;16.6;;;13.2;;
69404;SDS011;57084;52.046;5.632;2022-11-20T01:20:00;16.6;;;13.2;;
69404;SDS011;57084;52.046;5.632;2022-11-20T01:21:00;16.6;;;13.2;;
69404;SDS011;57084;52.046;5.632;2022-11-20T01:22:00;14.8;;;13.3;;
69404;SDS011;57084;52.046;5.632;2022-11-20T01:23:00;14.8;;;13.3;;
69404;SDS011;57084;52.046;5.632;2022-11-20T01:24:00;14.8;;;13.3;;
69404;SDS011;57084;52.046;5.632;2022-11-20T01:25:00;14.8;;;13.3;;
69404;SDS011;57084;52.046;5.632;2022-11-20T01:26:01;14.8;;;13.3;;
69404;SDS011;57084;52.046;5.632;2022-11-20T01:27:00;16.1;;;13.9;;
69404;SDS011;57084;52.046;5.632;2022-11-20T01:28:00;16.1;;;13.9;;
69404;SDS011;57084;52.046;5.632;2022-11-20T01:29:00;16.1;;;13.9;;
69404;SDS011;57084;52.046;5.632;2022-11-20T01:30:00;16.1;;;13.9;;
69404;SDS011;57084;52.046;5.632;2022-11-20T01:31:01;16.1;;;13.9;;
69404;SDS011;57084;52.046;5.632;2022-11-20T01:32:00;17.8;;;13.5;;
69404;SDS011;57084;52.046;5.632;2022-11-20T01:33:00;17.8;;;13.5;;
69404;SDS011;57084;52.046;5.632;2022-11-20T01:34:02;17.8;;;13.5;;
69404;SDS011;57084;52.046;5.632;2022-11-20T01:35:00;17.8;;;13.5;;
69404;SDS011;57084;52.046;5.632;2022-11-20T01:36:04;17.8;;;13.5;;
69404;SDS011;57084;52.046;5.632;2022-11-20T01:37:00;17.0;;;14.7;;
69404;SDS011;57084;52.046;5.632;2022-11-20T01:38:03;17.0;;;14.7;;
69404;SDS011;57084;52.046;5.632;2022-11-20T01:39:02;17.0;;;14.7;;
69404;SDS011;57084;52.046;5.632;2022-11-20T01:40:00;17.0;;;14.7;;
69404;SDS011;57084;52.046;5.632;2022-11-20T01:41:00;17.0;;;14.7;;
69404;SDS011;57084;52.046;5.632;2022-11-20T01:42:00;15.4;;;13.9;;
69404;SDS011;57084;52.046;5.632;2022-11-20T01:43:12;15.4;;;13.9;;
69404;SDS011;57084;52.046;5.632;2022-11-20T01:44:00;15.4;;;13.9;;
69404;SDS011;57084;52.046;5.632;2022-11-20T01:45:00;15.4;;;13.9;;
69404;SDS011;57084;52.046;5.632;2022-11-20T01:46:04;15.4;;;13.9;;
69404;SDS011;57084;52.046;5.632;2022-11-20T01:47:02;14.6;;;13.1;;
69404;SDS011;57084;52.046;5.632;2022-11-20T01:48:00;14.6;;;13.1;;
69404;SDS011;57084;52.046;5.632;2022-11-20T01:49:02;14.6;;;13.1;;
69404;SDS011;57084;52.046;5.632;2022-11-20T01:50:04;14.6;;;13.1;;
69404;SDS011;57084;52.046;5.632;2022-11-20T01:51:00;14.6;;;13.1;;
69404;SDS011;57084;52.046;5.632;2022-11-20T01:52:01;15.9;;;13.0;;
69404;SDS011;57084;52.046;5.632;2022-11-20T01:53:02;15.9;;;13.0;;
69404;SDS011;57084;52.046;5.632;2022-11-20T01:54:02;15.9;;;13.0;;
69404;SDS011;57084;52.046;5.632;2022-11-20T01:55:03;15.9;;;13.0;;
69404;SDS011;57084;52.046;5.632;2022-11-20T01:56:01;15.9;;;13.0;;
69404;SDS011;57084;52.046;5.632;2022-11-20T01:57:00;14.7;;;13.2;;
69404;SDS011;57084;52.046;5.632;2022-11-20T01:58:01;14.7;;;13.2;;
69404;SDS011;57084;52.046;5.632;2022-11-20T01:59:01;14.7;;;13.2;;
69404;SDS011;57084;52.046;5.632;2022-11-20T02:00:04;14.7;;;13.2;;
69404;SDS011;57084;52.046;5.632;2022-11-20T02:01:00;14.7;;;13.2;;
69404;SDS011;57084;52.046;5.632;2022-11-20T02:02:00;15.8;;;13.3;;
69404;SDS011;57084;52.046;5.632;2022-11-20T02:03:02;15.8;;;13.3;;
69404;SDS011;57084;52.046;5.632;2022-11-20T02:04:01;15.8;;;13.3;;
69404;SDS011;57084;52.046;5.632;2022-11-20T02:05:03;15.8;;;13.3;;
69404;SDS011;57084;52.046;5.632;2022-11-20T02:06:04;15.8;;;13.3;;
69404;SDS011;57084;52.046;5.632;2022-11-20T02:07:01;14.7;;;13.2;;
69404;SDS011;57084;52.046;5.632;2022-11-20T02:08:02;14.7;;;13.2;;
69404;SDS011;57084;52.046;5.632;2022-11-20T02:09:00;14.7;;;13.2;;
69404;SDS011;57084;52.046;5.632;2022-11-20T02:10:00;14.7;;;13.2;;
69404;SDS011;57084;52.046;5.632;2022-11-20T02:11:00;14.7;;;13.2;;
69404;SDS011;57084;52.046;5.632;2022-11-20T02:12:00;14.6;;;12.8;;
69404;SDS011;57084;52.046;5.632;2022-11-20T02:13:00;14.6;;;12.8;;
69404;SDS011;57084;52.046;5.632;2022-11-20T02:14:00;14.6;;;12.8;;
69404;SDS011;57084;52.046;5.632;2022-11-20T02:15:00;14.6;;;12.8;;
69404;SDS011;57084;52.046;5.632;2022-11-20T02:16:00;14.6;;;12.8;;
69404;SDS011;57084;52.046;5.632;2022-11-20T02:17:00;14.6;;;12.8;;
69404;SDS011;57084;52.046;5.632;2022-11-20T02:18:00;14.5;;;13.0;;
69404;SDS011;57084;52.046;5.632;2022-11-20T02:19:02;14.5;;;13.0;;
69404;SDS011;57084;52.046;5.632;2022-11-20T02:20:00;14.5;;;13.0;;
69404;SDS011;57084;52.046;5.632;2022-11-20T02:21:17;14.5;;;13.0;;
69404;SDS011;57084;52.046;5.632;2022-11-20T02:22:02;14.5;;;13.0;;
69404;SDS011;57084;52.046;5.632;2022-11-20T02:23:03;13.9;;;12.4;;
69404;SDS011;57084;52.046;5.632;2022-11-20T02:24:01;13.9;;;12.4;;
69404;SDS011;57084;52.046;5.632;2022-11-20T02:25:02;13.9;;;12.4;;
69404;SDS011;57084;52.046;5.632;2022-11-20T02:26:02;13.9;;;12.4;;
69404;SDS011;57084;52.046;5.632;2022-11-20T02:27:02;13.9;;;12.4;;
69404;SDS011;57084;52.046;5.632;2022-11-20T02:28:00;15.2;;;13.7;;
69404;SDS011;57084;52.046;5.632;2022-11-20T02:29:00;15.2;;;13.7;;
69404;SDS011;57084;52.046;5.632;2022-11-20T02:30:02;15.2;;;13.7;;
69404;SDS011;57084;52.046;5.632;2022-11-20T02:31:00;15.2;;;13.7;;
69404;SDS011;57084;52.046;5.632;2022-11-20T02:32:00;15.2;;;13.7;;
69404;SDS011;57084;52.046;5.632;2022-11-20T02:33:00;15.0;;;13.4;;
69404;SDS011;57084;52.046;5.632;2022-11-20T02:34:00;15.0;;;13.4;;
69404;SDS011;57084;52.046;5.632;2022-11-20T02:35:07;15.0;;;13.4;;
69404;SDS011;57084;52.046;5.632;2022-11-20T02:36:00;15.0;;;13.4;;
69404;SDS011;57084;52.046;5.632;2022-11-20T02:37:00;15.0;;;13.4;;
69404;SDS011;57084;52.046;5.632;2022-11-20T02:38:01;15.0;;;12.9;;
69404;SDS011;57084;52.046;5.632;2022-11-20T02:39:00;15.0;;;12.9;;
69404;SDS011;57084;52.046;5.632;2022-11-20T02:40:00;15.0;;;12.9;;
69404;SDS011;57084;52.046;5.632;2022-11-20T02:41:00;15.0;;;12.9;;
69404;SDS011;57084;52.046;5.632;2022-11-20T02:42:00;15.0;;;12.9;;
69404;SDS011;57084;52.046;5.632;2022-11-20T02:43:00;15.8;;;14.2;;
69404;SDS011;57084;52.046;5.632;2022-11-20T02:44:00;15.8;;;14.2;;
69404;SDS011;57084;52.046;5.632;2022-11-20T02:45:00;15.8;;;14.2;;
69404;SDS011;57084;52.046;5.632;2022-11-20T02:46:00;15.8;;;14.2;;
69404;SDS011;57084;52.046;5.632;2022-11-20T02:47:00;15.8;;;14.2;;
69404;SDS011;57084;52.046;5.632;2022-11-20T02:48:00;14.7;;;13.2;;
69404;SDS011;57084;52.046;5.632;2022-11-20T02:49:01;14.7;;;13.2;;
69404;SDS011;57084;52.046;5.632;2022-11-20T02:50:00;14.7;;;13.2;;
69404;SDS011;57084;52.046;5.632;2022-11-20T02:51:00;14.7;;;13.2;;
69404;SDS011;57084;52.046;5.632;2022-11-20T02:52:00;14.7;;;13.2;;
69404;SDS011;57084;52.046;5.632;2022-11-20T02:53:00;14.4;;;13.0;;
69404;SDS011;57084;52.046;5.632;2022-11-20T02:54:00;14.4;;;13.0;;
69404;SDS011;57084;52.046;5.632;2022-11-20T02:55:00;14.4;;;13.0;;
69404;SDS011;57084;52.046;5.632;2022-11-20T02:56:00;14.4;;;13.0;;
69404;SDS011;57084;52.046;5.632;2022-11-20T02:57:00;14.4;;;13.0;;
69404;SDS011;57084;52.046;5.632;2022-11-20T02:58:00;14.9;;;13.5;;
69404;SDS011;57084;52.046;5.632;2022-11-20T02:59:00;14.9;;;13.5;;
69404;SDS011;57084;52.046;5.632;2022-11-20T03:00:00;14.9;;;13.5;;
69404;SDS011;57084;52.046;5.632;2022-11-20T03:01:00;14.9;;;13.5;;
69404;SDS011;57084;52.046;5.632;2022-11-20T03:02:00;14.9;;;13.5;;
69404;SDS011;57084;52.046;5.632;2022-11-20T03:03:00;13.6;;;12.3;;
69404;SDS011;57084;52.046;5.632;2022-11-20T03:04:00;13.6;;;12.3;;
69404;SDS011;57084;52.046;5.632;2022-11-20T03:05:00;13.6;;;12.3;;
69404;SDS011;57084;52.046;5.632;2022-11-20T03:06:00;13.6;;;12.3;;
69404;SDS011;57084;52.046;5.632;2022-11-20T03:07:00;13.6;;;12.3;;
69404;SDS011;57084;52.046;5.632;2022-11-20T03:08:00;14.7;;;13.1;;
69404;SDS011;57084;52.046;5.632;2022-11-20T03:09:00;14.7;;;13.1;;
69404;SDS011;57084;52.046;5.632;2022-11-20T03:10:00;14.7;;;13.1;;
69404;SDS011;57084;52.046;5.632;2022-11-20T03:11:03;14.7;;;13.1;;
69404;SDS011;57084;52.046;5.632;2022-11-20T03:12:00;14.7;;;13.1;;
69404;SDS011;57084;52.046;5.632;2022-11-20T03:13:00;14.6;;;13.2;;
69404;SDS011;57084;52.046;5.632;2022-11-20T03:14:01;14.6;;;13.2;;
69404;SDS011;57084;52.046;5.632;2022-11-20T03:15:00;14.6;;;13.2;;
69404;SDS011;57084;52.046;5.632;2022-11-20T03:16:04;14.6;;;13.2;;
69404;SDS011;57084;52.046;5.632;2022-11-20T03:17:00;14.6;;;13.2;;
69404;SDS011;57084;52.046;5.632;2022-11-20T03:18:00;15.2;;;13.6;;
69404;SDS011;57084;52.046;5.632;2022-11-20T03:19:00;15.2;;;13.6;;
69404;SDS011;57084;52.046;5.632;2022-11-20T03:20:00;15.2;;;13.6;;
69404;SDS011;57084;52.046;5.632;2022-11-20T03:21:00;15.2;;;13.6;;
69404;SDS011;57084;52.046;5.632;2022-11-20T03:22:00;15.2;;;13.6;;
69404;SDS011;57084;52.046;5.632;2022-11-20T03:23:00;14.4;;;13.0;;
69404;SDS011;57084;52.046;5.632;2022-11-20T03:24:00;14.4;;;13.0;;
69404;SDS011;57084;52.046;5.632;2022-11-20T03:25:00;14.4;;;13.0;;
69404;SDS011;57084;52.046;5.632;2022-11-20T03:26:11;14.4;;;13.0;;
69404;SDS011;57084;52.046;5.632;2022-11-20T03:27:00;14.4;;;13.0;;
69404;SDS011;57084;52.046;5.632;2022-11-20T03:28:00;15.6;;;13.9;;
69404;SDS011;57084;52.046;5.632;2022-11-20T03:29:02;15.6;;;13.9;;
69404;SDS011;57084;52.046;5.632;2022-11-20T03:30:00;15.6;;;13.9;;
69404;SDS011;57084;52.046;5.632;2022-11-20T03:31:05;15.6;;;13.9;;
69404;SDS011;57084;52.046;5.632;2022-11-20T03:32:00;15.6;;;13.9;;
69404;SDS011;57084;52.046;5.632;2022-11-20T03:33:00;14.2;;;12.7;;
69404;SDS011;57084;52.046;5.632;2022-11-20T03:34:01;14.2;;;12.7;;
69404;SDS011;57084;52.046;5.632;2022-11-20T03:35:00;14.2;;;12.7;;
69404;SDS011;57084;52.046;5.632;2022-11-20T03:36:01;14.2;;;12.7;;
69404;SDS011;57084;52.046;5.632;2022-11-20T03:37:00;14.2;;;12.7;;
69404;SDS011;57084;52.046;5.632;2022-11-20T03:38:00;14.8;;;13.2;;
69404;SDS011;57084;52.046;5.632;2022-11-20T03:39:00;14.8;;;13.2;;
69404;SDS011;57084;52.046;5.632;2022-11-20T03:40:00;14.8;;;13.2;;
69404;SDS011;57084;52.046;5.632;2022-11-20T03:41:01;14.8;;;13.2;;
69404;SDS011;57084;52.046;5.632;2022-11-20T03:42:00;14.8;;;13.2;;
69404;SDS011;57084;52.046;5.632;2022-11-20T03:43:00;15.3;;;13.7;;
69404;SDS011;57084;52.046;5.632;2022-11-20T03:44:03;15.3;;;13.7;;
69404;SDS011;57084;52.046;5.632;2022-11-20T03:45:00;15.3;;;13.7;;
69404;SDS011;57084;52.046;5.632;2022-11-20T03:46:00;15.3;;;13.7;;
69404;SDS011;57084;52.046;5.632;2022-11-20T03:47:00;15.3;;;13.7;;
69404;SDS011;57084;52.046;5.632;2022-11-20T03:48:00;15.6;;;14.0;;
69404;SDS011;57084;52.046;5.632;2022-11-20T03:49:00;15.6;;;14.0;;
69404;SDS011;57084;52.046;5.632;2022-11-20T03:50:00;15.6;;;14.0;;
69404;SDS011;57084;52.046;5.632;2022-11-20T03:51:09;15.6;;;14.0;;
69404;SDS011;57084;52.046;5.632;2022-11-20T03:52:00;15.6;;;14.0;;
69404;SDS011;57084;52.046;5.632;2022-11-20T03:53:00;14.3;;;12.9;;
69404;SDS011;57084;52.046;5.632;2022-11-20T03:54:02;14.3;;;12.9;;
69404;SDS011;57084;52.046;5.632;2022-11-20T03:55:00;14.3;;;12.9;;
69404;SDS011;57084;52.046;5.632;2022-11-20T03:56:00;14.3;;;12.9;;
69404;SDS011;57084;52.046;5.632;2022-11-20T03:57:00;14.3;;;12.9;;
69404;SDS011;57084;52.046;5.632;2022-11-20T03:58:00;15.9;;;14.2;;
69404;SDS011;57084;52.046;5.632;2022-11-20T03:59:00;15.9;;;14.2;;
69404;SDS011;57084;52.046;5.632;2022-11-20T04:00:00;15.9;;;14.2;;
69404;SDS011;57084;52.046;5.632;2022-11-20T04:01:05;15.9;;;14.2;;
69404;SDS011;57084;52.046;5.632;2022-11-20T04:02:00;15.9;;;14.2;;
69404;SDS011;57084;52.046;5.632;2022-11-20T04:03:00;14.4;;;13.0;;
69404;SDS011;57084;52.046;5.632;2022-11-20T04:04:00;14.4;;;13.0;;
69404;SDS011;57084;52.046;5.632;2022-11-20T04:05:00;14.4;;;13.0;;
69404;SDS011;57084;52.046;5.632;2022-11-20T04:06:02;14.4;;;13.0;;
69404;SDS011;57084;52.046;5.632;2022-11-20T04:07:00;14.4;;;13.0;;
69404;SDS011;57084;52.046;5.632;2022-11-20T04:08:00;14.4;;;13.0;;
69404;SDS011;57084;52.046;5.632;2022-11-20T04:09:00;15.4;;;13.6;;
69404;SDS011;57084;52.046;5.632;2022-11-20T04:10:00;15.4;;;13.6;;
69404;SDS011;57084;52.046;5.632;2022-11-20T04:11:09;15.4;;;13.6;;
69404;SDS011;57084;52.046;5.632;2022-11-20T04:12:00;15.4;;;13.6;;
69404;SDS011;57084;52.046;5.632;2022-11-20T04:13:00;15.4;;;13.6;;
69404;SDS011;57084;52.046;5.632;2022-11-20T04:14:02;14.6;;;13.1;;
69404;SDS011;57084;52.046;5.632;2022-11-20T04:15:00;14.6;;;13.1;;
69404;SDS011;57084;52.046;5.632;2022-11-20T04:16:00;14.6;;;13.1;;
69404;SDS011;57084;52.046;5.632;2022-11-20T04:17:00;14.6;;;13.1;;
69404;SDS011;57084;52.046;5.632;2022-11-20T04:18:00;14.6;;;13.1;;
69404;SDS011;57084;52.046;5.632;2022-11-20T04:19:02;17.0;;;13.3;;
69404;SDS011;57084;52.046;5.632;2022-11-20T04:20:00;17.0;;;13.3;;
69404;SDS011;57084;52.046;5.632;2022-11-20T04:21:00;17.0;;;13.3;;
69404;SDS011;57084;52.046;5.632;2022-11-20T04:22:00;17.0;;;13.3;;
69404;SDS011;57084;52.046;5.632;2022-11-20T04:23:00;17.0;;;13.3;;
69404;SDS011;57084;52.046;5.632;2022-11-20T04:24:00;15.6;;;13.7;;
69404;SDS011;57084;52.046;5.632;2022-11-20T04:25:00;15.6;;;13.7;;
69404;SDS011;57084;52.046;5.632;2022-11-20T04:26:01;15.6;;;13.7;;
69404;SDS011;57084;52.046;5.632;2022-11-20T04:27:00;15.6;;;13.7;;
69404;SDS011;57084;52.046;5.632;2022-11-20T04:28:00;15.6;;;13.7;;
69404;SDS011;57084;52.046;5.632;2022-11-20T04:29:00;15.1;;;13.5;;
69404;SDS011;57084;52.046;5.632;2022-11-20T04:30:00;15.1;;;13.5;;
69404;SDS011;57084;52.046;5.632;2022-11-20T04:31:03;15.1;;;13.5;;
69404;SDS011;57084;52.046;5.632;2022-11-20T04:32:00;15.1;;;13.5;;
69404;SDS011;57084;52.046;5.632;2022-11-20T04:33:00;15.1;;;13.5;;
69404;SDS011;57084;52.046;5.632;2022-11-20T04:34:01;17.7;;;13.9;;
69404;SDS011;57084;52.046;5.632;2022-11-20T04:35:00;17.7;;;13.9;;
69404;SDS011;57084;52.046;5.632;2022-11-20T04:36:02;17.7;;;13.9;;
69404;SDS011;57084;52.046;5.632;2022-11-20T04:37:00;17.7;;;13.9;;
69404;SDS011;57084;52.046;5.632;2022-11-20T04:38:00;17.7;;;13.9;;
69404;SDS011;57084;52.046;5.632;2022-11-20T04:39:02;14.3;;;12.9;;
69404;SDS011;57084;52.046;5.632;2022-11-20T04:40:00;14.3;;;12.9;;
69404;SDS011;57084;52.046;5.632;2022-11-20T04:41:01;14.3;;;12.9;;
69404;SDS011;57084;52.046;5.632;2022-11-20T04:42:00;14.3;;;12.9;;
69404;SDS011;57084;52.046;5.632;2022-11-20T04:43:00;14.3;;;12.9;;
69404;SDS011;57084;52.046;5.632;2022-11-20T04:44:01;15.9;;;13.7;;
69404;SDS011;57084;52.046;5.632;2022-11-20T04:45:00;15.9;;;13.7;;
69404;SDS011;57084;52.046;5.632;2022-11-20T04:46:00;15.9;;;13.7;;
69404;SDS011;57084;52.046;5.632;2022-11-20T04:47:00;15.9;;;13.7;;
69404;SDS011;57084;52.046;5.632;2022-11-20T04:48:00;15.9;;;13.7;;
69404;SDS011;57084;52.046;5.632;2022-11-20T04:49:00;15.8;;;13.2;;
69404;SDS011;57084;52.046;5.632;2022-11-20T04:50:00;15.8;;;13.2;;
69404;SDS011;57084;52.046;5.632;2022-11-20T04:51:02;15.8;;;13.2;;
69404;SDS011;57084;52.046;5.632;2022-11-20T04:52:00;15.8;;;13.2;;
69404;SDS011;57084;52.046;5.632;2022-11-20T04:53:00;15.8;;;13.2;;
69404;SDS011;57084;52.046;5.632;2022-11-20T04:54:00;17.1;;;14.0;;
69404;SDS011;57084;52.046;5.632;2022-11-20T04:55:00;17.1;;;14.0;;
69404;SDS011;57084;52.046;5.632;2022-11-20T04:56:00;17.1;;;14.0;;
69404;SDS011;57084;52.046;5.632;2022-11-20T04:57:00;17.1;;;14.0;;
69404;SDS011;57084;52.046;5.632;2022-11-20T04:58:00;17.1;;;14.0;;
69404;SDS011;57084;52.046;5.632;2022-11-20T04:59:00;15.1;;;13.5;;
69404;SDS011;57084;52.046;5.632;2022-11-20T05:00:00;15.1;;;13.5;;
69404;SDS011;57084;52.046;5.632;2022-11-20T05:01:01;15.1;;;13.5;;
69404;SDS011;57084;52.046;5.632;2022-11-20T05:02:00;15.1;;;13.5;;
69404;SDS011;57084;52.046;5.632;2022-11-20T05:03:00;15.1;;;13.5;;
69404;SDS011;57084;52.046;5.632;2022-11-20T05:04:00;14.3;;;12.8;;
69404;SDS011;57084;52.046;5.632;2022-11-20T05:05:00;14.3;;;12.8;;
69404;SDS011;57084;52.046;5.632;2022-11-20T05:06:00;14.3;;;12.8;;
69404;SDS011;57084;52.046;5.632;2022-11-20T05:07:00;14.3;;;12.8;;
69404;SDS011;57084;52.046;5.632;2022-11-20T05:08:00;14.3;;;12.8;;
69404;SDS011;57084;52.046;5.632;2022-11-20T05:09:00;15.4;;;13.5;;
69404;SDS011;57084;52.046;5.632;2022-11-20T05:10:00;15.4;;;13.5;;
69404;SDS011;57084;52.046;5.632;2022-11-20T05:11:01;15.4;;;13.5;;
69404;SDS011;57084;52.046;5.632;2022-11-20T05:12:00;15.4;;;13.5;;
69404;SDS011;57084;52.046;5.632;2022-11-20T05:13:00;15.4;;;13.5;;
69404;SDS011;57084;52.046;5.632;2022-11-20T05:14:00;14.5;;;13.1;;
69404;SDS011;57084;52.046;5.632;2022-11-20T05:15:00;14.5;;;13.1;;
69404;SDS011;57084;52.046;5.632;2022-11-20T05:16:01;14.5;;;13.1;;
69404;SDS011;57084;52.046;5.632;2022-11-20T05:17:00;14.5;;;13.1;;
69404;SDS011;57084;52.046;5.632;2022-11-20T05:18:00;14.5;;;13.1;;
69404;SDS011;57084;52.046;5.632;2022-11-20T05:19:00;13.9;;;12.6;;
69404;SDS011;57084;52.046;5.632;2022-11-20T05:20:00;13.9;;;12.6;;
69404;SDS011;57084;52.046;5.632;2022-11-20T05:21:00;13.9;;;12.6;;
69404;SDS011;57084;52.046;5.632;2022-11-20T05:22:00;13.9;;;12.6;;
69404;SDS011;57084;52.046;5.632;2022-11-20T05:23:00;13.9;;;12.6;;
69404;SDS011;57084;52.046;5.632;2022-11-20T05:24:00;13.8;;;12.5;;
69404;SDS011;57084;52.046;5.632;2022-11-20T05:25:00;13.8;;;12.5;;
69404;SDS011;57084;52.046;5.632;2022-11-20T05:26:00;13.8;;;12.5;;
69404;SDS011;57084;52.046;5.632;2022-11-20T05:27:00;13.8;;;12.5;;
69404;SDS011;57084;52.046;5.632;2022-11-20T05:28:00;13.8;;;12.5;;
69404;SDS011;57084;52.046;5.632;2022-11-20T05:29:00;14.3;;;12.7;;
69404;SDS011;57084;52.046;5.632;2022-11-20T05:30:00;14.3;;;12.7;;
69404;SDS011;57084;52.046;5.632;2022-11-20T05:31:09;14.3;;;12.7;;
69404;SDS011;57084;52.046;5.632;2022-11-20T05:32:00;14.3;;;12.7;;
69404;SDS011;57084;52.046;5.632;2022-11-20T05:33:00;14.3;;;12.7;;
69404;SDS011;57084;52.046;5.632;2022-11-20T05:34:00;15.7;;;13.7;;
69404;SDS011;57084;52.046;5.632;2022-11-20T05:35:00;15.7;;;13.7;;
69404;SDS011;57084;52.046;5.632;2022-11-20T05:36:00;15.7;;;13.7;;
69404;SDS011;57084;52.046;5.632;2022-11-20T05:37:00;15.7;;;13.7;;
69404;SDS011;57084;52.046;5.632;2022-11-20T05:38:00;15.7;;;13.7;;
69404;SDS011;57084;52.046;5.632;2022-11-20T05:39:00;17.1;;;14.2;;
69404;SDS011;57084;52.046;5.632;2022-11-20T05:40:00;17.1;;;14.2;;
69404;SDS011;57084;52.046;5.632;2022-11-20T05:41:03;17.1;;;14.2;;
69404;SDS011;57084;52.046;5.632;2022-11-20T05:42:00;17.1;;;14.2;;
69404;SDS011;57084;52.046;5.632;2022-11-20T05:43:00;17.1;;;14.2;;
69404;SDS011;57084;52.046;5.632;2022-11-20T05:44:00;15.2;;;13.0;;
69404;SDS011;57084;52.046;5.632;2022-11-20T05:45:02;15.2;;;13.0;;
69404;SDS011;57084;52.046;5.632;2022-11-20T05:46:00;15.2;;;13.0;;
69404;SDS011;57084;52.046;5.632;2022-11-20T05:47:00;15.2;;;13.0;;
69404;SDS011;57084;52.046;5.632;2022-11-20T05:48:00;15.2;;;13.0;;
69404;SDS011;57084;52.046;5.632;2022-11-20T05:49:00;14.9;;;13.4;;
69404;SDS011;57084;52.046;5.632;2022-11-20T05:50:00;14.9;;;13.4;;
69404;SDS011;57084;52.046;5.632;2022-11-20T05:51:02;14.9;;;13.4;;
69404;SDS011;57084;52.046;5.632;2022-11-20T05:52:00;14.9;;;13.4;;
69404;SDS011;57084;52.046;5.632;2022-11-20T05:53:00;14.9;;;13.4;;
69404;SDS011;57084;52.046;5.632;2022-11-20T05:54:00;15.4;;;13.5;;
69404;SDS011;57084;52.046;5.632;2022-11-20T05:55:00;15.4;;;13.5;;
69404;SDS011;57084;52.046;5.632;2022-11-20T05:56:02;15.4;;;13.5;;
69404;SDS011;57084;52.046;5.632;2022-11-20T05:57:00;15.4;;;13.5;;
69404;SDS011;57084;52.046;5.632;2022-11-20T05:58:00;15.4;;;13.5;;
69404;SDS011;57084;52.046;5.632;2022-11-20T05:59:00;14.2;;;12.8;;
69404;SDS011;57084;52.046;5.632;2022-11-20T06:00:00;14.2;;;12.8;;
69404;SDS011;57084;52.046;5.632;2022-11-20T06:01:05;14.2;;;12.8;;